sensor_id;sensor_type;location;lat;lon;timestamp;P1;durP1;ratioP1;P2;durP2;ratioP2
61570;SDS011;47463;49.884;10.010;2023-01-13T00:00:00;3.7;;;1.2;;
61570;SDS011;47463;49.884;10.010;2023-01-13T00:05:00;2.6;;;1;;
61570;SDS011;47463;49.884;10.010;2023-01-13T00:10:00;3.3;;;1.7;;
61570;SDS011;47463;49.884;10.010;2023-01-13T00:15:00;3.3;;;1.1;;
61570;SDS011;47463;49.884;10.010;2023-01-13T00:20:00;5;;;1.5;;
61570;SDS011;47463;49.884;10.010;2023-01-13T00:25:00;3.8;;;0.9;;
61570;SDS011;47463;49.884;10.010;2023-01-13T00:30:00;3.8;;;0.9;;
61570;SDS011;47463;49.884;10.010;2023-01-13T00:35:00;3.2;;;1;;
61570;SDS011;47463;49.884;10.010;2023-01-13T00:40:00;4.9;;;0.9;;
61570;SDS011;47463;49.884;10.010;2023-01-13T00:45:00;2.9;;;1.1;;
61570;SDS011;47463;49.884;10.010;2023-01-13T00:50:00;5.4;;;1.3;;
61570;SDS011;47463;49.884;10.010;2023-01-13T00:55:00;2.7;;;0.9;;
61570;SDS011;47463;49.884;10.010;2023-01-13T01:00:00;2.7;;;0.9;;
61570;SDS011;47463;49.884;10.010;2023-01-13T01:05:00;4.1;;;1.1;;
61570;SDS011;47463;49.884;10.010;2023-01-13T01:10:00;1.6;;;1;;
61570;SDS011;47463;49.884;10.010;2023-01-13T01:15:00;2.4;;;0.9;;
61570;SDS011;47463;49.884;10.010;2023-01-13T01:20:00;1.6;;;0.8;;
61570;SDS011;47463;49.884;10.010;2023-01-13T01:25:00;3.3;;;1.1;;
61570;SDS011;47463;49.884;10.010;2023-01-13T01:30:00;3.3;;;1.1;;
61570;SDS011;47463;49.884;10.010;2023-01-13T01:35:00;3.4;;;1.2;;
61570;SDS011;47463;49.884;10.010;2023-01-13T01:40:00;1.8;;;0.9;;
61570;SDS011;47463;49.884;10.010;2023-01-13T01:45:00;2.1;;;0.9;;
61570;SDS011;47463;49.884;10.010;2023-01-13T01:50:00;2.2;;;0.8;;
61570;SDS011;47463;49.884;10.010;2023-01-13T01:55:01;1.8;;;0.8;;
61570;SDS011;47463;49.884;10.010;2023-01-13T02:00:00;1.8;;;0.8;;
61570;SDS011;47463;49.884;10.010;2023-01-13T02:05:00;4;;;0.9;;
61570;SDS011;47463;49.884;10.010;2023-01-13T02:10:00;2.2;;;0.9;;
61570;SDS011;47463;49.884;10.010;2023-01-13T02:15:00;2.3;;;0.9;;
61570;SDS011;47463;49.884;10.010;2023-01-13T02:20:14;1;;;0.6;;
61570;SDS011;47463;49.884;10.010;2023-01-13T02:25:05;3.1;;;0.8;;
61570;SDS011;47463;49.884;10.010;2023-01-13T02:30:03;3.1;;;0.8;;
61570;SDS011;47463;49.884;10.010;2023-01-13T02:35:02;1.6;;;0.6;;
61570;SDS011;47463;49.884;10.010;2023-01-13T02:40:00;2.7;;;0.8;;
61570;SDS011;47463;49.884;10.010;2023-01-13T02:45:00;2.6;;;1.2;;
61570;SDS011;47463;49.884;10.010;2023-01-13T02:50:01;2.2;;;0.7;;
61570;SDS011;47463;49.884;10.010;2023-01-13T02:55:01;1.4;;;0.7;;
61570;SDS011;47463;49.884;10.010;2023-01-13T03:00:00;1.4;;;0.7;;
61570;SDS011;47463;49.884;10.010;2023-01-13T03:05:00;2.4;;;1.2;;
61570;SDS011;47463;49.884;10.010;2023-01-13T03:10:00;1.3;;;0.8;;
61570;SDS011;47463;49.884;10.010;2023-01-13T03:15:00;2.1;;;0.9;;
61570;SDS011;47463;49.884;10.010;2023-01-13T03:20:00;2.7;;;0.8;;
61570;SDS011;47463;49.884;10.010;2023-01-13T03:25:01;1.7;;;0.6;;
61570;SDS011;47463;49.884;10.010;2023-01-13T03:30:00;1.7;;;0.6;;
61570;SDS011;47463;49.884;10.010;2023-01-13T03:35:02;1.7;;;0.8;;
61570;SDS011;47463;49.884;10.010;2023-01-13T03:40:01;0.9;;;0.8;;
61570;SDS011;47463;49.884;10.010;2023-01-13T03:45:01;2.1;;;0.9;;
61570;SDS011;47463;49.884;10.010;2023-01-13T03:50:01;2;;;0.9;;
61570;SDS011;47463;49.884;10.010;2023-01-13T03:55:00;1;;;0.6;;
61570;SDS011;47463;49.884;10.010;2023-01-13T04:00:00;1;;;0.6;;
61570;SDS011;47463;49.884;10.010;2023-01-13T04:05:00;1.8;;;0.7;;
61570;SDS011;47463;49.884;10.010;2023-01-13T04:10:00;1;;;0.8;;
61570;SDS011;47463;49.884;10.010;2023-01-13T04:15:00;1.7;;;0.7;;
61570;SDS011;47463;49.884;10.010;2023-01-13T04:20:00;1.1;;;0.7;;
61570;SDS011;47463;49.884;10.010;2023-01-13T04:25:00;0.6;;;0.5;;
61570;SDS011;47463;49.884;10.010;2023-01-13T04:30:00;0.6;;;0.5;;
61570;SDS011;47463;49.884;10.010;2023-01-13T04:35:00;1.8;;;0.8;;
61570;SDS011;47463;49.884;10.010;2023-01-13T04:40:00;1;;;0.7;;
61570;SDS011;47463;49.884;10.010;2023-01-13T04:45:00;2;;;0.8;;
61570;SDS011;47463;49.884;10.010;2023-01-13T04:50:00;2.1;;;0.9;;
61570;SDS011;47463;49.884;10.010;2023-01-13T04:55:00;1.1;;;0.7;;
61570;SDS011;47463;49.884;10.010;2023-01-13T05:00:00;1.1;;;0.7;;
61570;SDS011;47463;49.884;10.010;2023-01-13T05:05:00;1.2;;;0.6;;
61570;SDS011;47463;49.884;10.010;2023-01-13T05:10:00;1.1;;;0.8;;
61570;SDS011;47463;49.884;10.010;2023-01-13T05:15:00;1.3;;;0.6;;
61570;SDS011;47463;49.884;10.010;2023-01-13T05:20:00;1;;;0.7;;
61570;SDS011;47463;49.884;10.010;2023-01-13T05:25:00;0.5;;;0.5;;
61570;SDS011;47463;49.884;10.010;2023-01-13T05:30:00;0.5;;;0.5;;
61570;SDS011;47463;49.884;10.010;2023-01-13T05:35:00;2.7;;;0.7;;
61570;SDS011;47463;49.884;10.010;2023-01-13T05:40:00;1.5;;;0.7;;
61570;SDS011;47463;49.884;10.010;2023-01-13T05:45:00;1.5;;;0.8;;
61570;SDS011;47463;49.884;10.010;2023-01-13T05:50:00;3;;;0.8;;
61570;SDS011;47463;49.884;10.010;2023-01-13T05:55:00;1.1;;;0.7;;
61570;SDS011;47463;49.884;10.010;2023-01-13T06:00:00;1.1;;;0.7;;
61570;SDS011;47463;49.884;10.010;2023-01-13T06:05:00;0.8;;;0.8;;
61570;SDS011;47463;49.884;10.010;2023-01-13T06:10:00;1.6;;;0.8;;
61570;SDS011;47463;49.884;10.010;2023-01-13T06:15:00;1;;;0.9;;
61570;SDS011;47463;49.884;10.010;2023-01-13T06:20:00;1;;;0.7;;
61570;SDS011;47463;49.884;10.010;2023-01-13T06:25:00;1.4;;;0.9;;
61570;SDS011;47463;49.884;10.010;2023-01-13T06:30:00;1.4;;;0.9;;
61570;SDS011;47463;49.884;10.010;2023-01-13T06:35:00;1.8;;;0.8;;
61570;SDS011;47463;49.884;10.010;2023-01-13T06:40:00;1.4;;;0.8;;
61570;SDS011;47463;49.884;10.010;2023-01-13T06:45:00;2.8;;;1;;
61570;SDS011;47463;49.884;10.010;2023-01-13T06:50:00;0.9;;;0.8;;
61570;SDS011;47463;49.884;10.010;2023-01-13T06:55:00;2.6;;;0.9;;
61570;SDS011;47463;49.884;10.010;2023-01-13T07:00:00;2.6;;;0.9;;
61570;SDS011;47463;49.884;10.010;2023-01-13T07:05:00;1.4;;;0.8;;
61570;SDS011;47463;49.884;10.010;2023-01-13T07:10:00;3.2;;;0.8;;
61570;SDS011;47463;49.884;10.010;2023-01-13T07:15:00;2.5;;;1;;
61570;SDS011;47463;49.884;10.010;2023-01-13T07:20:00;2;;;0.7;;
61570;SDS011;47463;49.884;10.010;2023-01-13T07:25:00;2;;;0.7;;
61570;SDS011;47463;49.884;10.010;2023-01-13T07:30:00;2;;;0.7;;
61570;SDS011;47463;49.884;10.010;2023-01-13T07:35:00;2.1;;;0.8;;
61570;SDS011;47463;49.884;10.010;2023-01-13T07:40:00;1.1;;;0.8;;
61570;SDS011;47463;49.884;10.010;2023-01-13T07:45:00;1;;;0.4;;
61570;SDS011;47463;49.884;10.010;2023-01-13T07:50:00;0.7;;;0.4;;
61570;SDS011;47463;49.884;10.010;2023-01-13T07:55:00;0.5;;;0.4;;
61570;SDS011;47463;49.884;10.010;2023-01-13T08:00:00;0.5;;;0.4;;
61570;SDS011;47463;49.884;10.010;2023-01-13T08:05:00;0.3;;;0.2;;
61570;SDS011;47463;49.884;10.010;2023-01-13T08:10:00;0.2;;;0.2;;
61570;SDS011;47463;49.884;10.010;2023-01-13T08:15:00;0.7;;;0.3;;
61570;SDS011;47463;49.884;10.010;2023-01-13T08:20:00;0.6;;;0.4;;
61570;SDS011;47463;49.884;10.010;2023-01-13T08:25:00;0.5;;;0.3;;
61570;SDS011;47463;49.884;10.010;2023-01-13T08:30:00;0.5;;;0.3;;
61570;SDS011;47463;49.884;10.010;2023-01-13T08:35:00;0.4;;;0.3;;
61570;SDS011;47463;49.884;10.010;2023-01-13T08:40:00;0.3;;;0.3;;
61570;SDS011;47463;49.884;10.010;2023-01-13T08:45:00;0.9;;;0.4;;
61570;SDS011;47463;49.884;10.010;2023-01-13T08:50:00;2.1;;;0.6;;
61570;SDS011;47463;49.884;10.010;2023-01-13T08:55:00;1.1;;;0.3;;
61570;SDS011;47463;49.884;10.010;2023-01-13T09:00:00;1.1;;;0.3;;
61570;SDS011;47463;49.884;10.010;2023-01-13T09:05:00;2;;;0.4;;
61570;SDS011;47463;49.884;10.010;2023-01-13T09:10:00;0.4;;;0.3;;
61570;SDS011;47463;49.884;10.010;2023-01-13T09:15:00;1.8;;;0.5;;
61570;SDS011;47463;49.884;10.010;2023-01-13T09:20:00;1.3;;;0.5;;
61570;SDS011;47463;49.884;10.010;2023-01-13T09:25:00;0.8;;;0.4;;
61570;SDS011;47463;49.884;10.010;2023-01-13T09:30:00;0.8;;;0.4;;
61570;SDS011;47463;49.884;10.010;2023-01-13T09:35:00;1.7;;;0.5;;
61570;SDS011;47463;49.884;10.010;2023-01-13T09:40:00;0.6;;;0.3;;
61570;SDS011;47463;49.884;10.010;2023-01-13T09:45:00;0.8;;;0.4;;
61570;SDS011;47463;49.884;10.010;2023-01-13T09:50:02;0.9;;;0.5;;
61570;SDS011;47463;49.884;10.010;2023-01-13T09:55:01;1.1;;;0.5;;
61570;SDS011;47463;49.884;10.010;2023-01-13T10:00:00;1.1;;;0.5;;
61570;SDS011;47463;49.884;10.010;2023-01-13T10:05:02;0.6;;;0.5;;
61570;SDS011;47463;49.884;10.010;2023-01-13T10:10:00;2.7;;;0.6;;
61570;SDS011;47463;49.884;10.010;2023-01-13T10:15:00;2;;;0.5;;
61570;SDS011;47463;49.884;10.010;2023-01-13T10:20:02;2.9;;;0.6;;
61570;SDS011;47463;49.884;10.010;2023-01-13T10:25:03;1.6;;;0.6;;
61570;SDS011;47463;49.884;10.010;2023-01-13T10:30:09;1.6;;;0.6;;
61570;SDS011;47463;49.884;10.010;2023-01-13T10:35:00;1.7;;;0.6;;
61570;SDS011;47463;49.884;10.010;2023-01-13T10:40:00;1.6;;;0.6;;
61570;SDS011;47463;49.884;10.010;2023-01-13T10:45:00;5.7;;;0.8;;
61570;SDS011;47463;49.884;10.010;2023-01-13T10:50:01;2.8;;;0.8;;
61570;SDS011;47463;49.884;10.010;2023-01-13T10:55:00;2.7;;;0.8;;
61570;SDS011;47463;49.884;10.010;2023-01-13T11:00:00;2.7;;;0.8;;
61570;SDS011;47463;49.884;10.010;2023-01-13T11:05:04;4;;;1.1;;
61570;SDS011;47463;49.884;10.010;2023-01-13T11:10:09;4;;;0.7;;
61570;SDS011;47463;49.884;10.010;2023-01-13T11:15:00;3.4;;;0.8;;
61570;SDS011;47463;49.884;10.010;2023-01-13T11:20:03;2.3;;;0.7;;
61570;SDS011;47463;49.884;10.010;2023-01-13T11:25:00;3.1;;;0.9;;
61570;SDS011;47463;49.884;10.010;2023-01-13T11:30:02;3.1;;;0.9;;
61570;SDS011;47463;49.884;10.010;2023-01-13T11:35:01;3.2;;;0.9;;
61570;SDS011;47463;49.884;10.010;2023-01-13T11:40:00;2.8;;;0.7;;
61570;SDS011;47463;49.884;10.010;2023-01-13T11:45:02;4.2;;;0.7;;
61570;SDS011;47463;49.884;10.010;2023-01-13T11:50:00;1.8;;;0.7;;
61570;SDS011;47463;49.884;10.010;2023-01-13T11:55:03;2.4;;;0.8;;
61570;SDS011;47463;49.884;10.010;2023-01-13T12:00:03;2.4;;;0.8;;
61570;SDS011;47463;49.884;10.010;2023-01-13T12:05:02;3.4;;;0.9;;
61570;SDS011;47463;49.884;10.010;2023-01-13T12:10:02;2.1;;;0.8;;
61570;SDS011;47463;49.884;10.010;2023-01-13T12:15:06;7;;;0.8;;
61570;SDS011;47463;49.884;10.010;2023-01-13T12:20:00;7.1;;;1.2;;
61570;SDS011;47463;49.884;10.010;2023-01-13T12:25:01;6.2;;;1;;
61570;SDS011;47463;49.884;10.010;2023-01-13T12:30:00;6.2;;;1;;
61570;SDS011;47463;49.884;10.010;2023-01-13T12:35:04;5.5;;;1;;
61570;SDS011;47463;49.884;10.010;2023-01-13T12:40:04;5;;;1.7;;
61570;SDS011;47463;49.884;10.010;2023-01-13T12:45:18;4.8;;;0.9;;
61570;SDS011;47463;49.884;10.010;2023-01-13T12:50:19;6.7;;;1;;
61570;SDS011;47463;49.884;10.010;2023-01-13T12:55:01;4.4;;;1.1;;
61570;SDS011;47463;49.884;10.010;2023-01-13T13:00:15;4.4;;;1.1;;
61570;SDS011;47463;49.884;10.010;2023-01-13T13:05:28;5.7;;;1.3;;
61570;SDS011;47463;49.884;10.010;2023-01-13T13:10:00;3;;;1;;
61570;SDS011;47463;49.884;10.010;2023-01-13T13:15:00;5.8;;;1.2;;
61570;SDS011;47463;49.884;10.010;2023-01-13T13:20:00;4.6;;;1.1;;
61570;SDS011;47463;49.884;10.010;2023-01-13T13:25:31;5.2;;;1.2;;
61570;SDS011;47463;49.884;10.010;2023-01-13T13:30:00;5.2;;;1.2;;
61570;SDS011;47463;49.884;10.010;2023-01-13T13:35:04;4.3;;;0.9;;
61570;SDS011;47463;49.884;10.010;2023-01-13T13:40:00;6.8;;;1.2;;
61570;SDS011;47463;49.884;10.010;2023-01-13T13:45:00;5.7;;;1.2;;
61570;SDS011;47463;49.884;10.010;2023-01-13T13:50:05;5;;;1.1;;
61570;SDS011;47463;49.884;10.010;2023-01-13T13:55:01;7.6;;;1.3;;
61570;SDS011;47463;49.884;10.010;2023-01-13T14:00:00;7.6;;;1.3;;
61570;SDS011;47463;49.884;10.010;2023-01-13T14:05:19;9.2;;;1.6;;
61570;SDS011;47463;49.884;10.010;2023-01-13T14:10:00;6.1;;;1.4;;
61570;SDS011;47463;49.884;10.010;2023-01-13T14:15:00;7.2;;;1.5;;
61570;SDS011;47463;49.884;10.010;2023-01-13T14:20:02;4.9;;;1.7;;
61570;SDS011;47463;49.884;10.010;2023-01-13T14:25:00;5;;;1.3;;
61570;SDS011;47463;49.884;10.010;2023-01-13T14:30:00;5;;;1.3;;
61570;SDS011;47463;49.884;10.010;2023-01-13T14:35:00;4.9;;;1.2;;
61570;SDS011;47463;49.884;10.010;2023-01-13T14:40:00;4.8;;;1.1;;
61570;SDS011;47463;49.884;10.010;2023-01-13T14:45:00;7.1;;;1.2;;
61570;SDS011;47463;49.884;10.010;2023-01-13T14:50:01;3.9;;;0.9;;
61570;SDS011;47463;49.884;10.010;2023-01-13T14:55:13;4.9;;;1.1;;
61570;SDS011;47463;49.884;10.010;2023-01-13T15:00:01;4.9;;;1.1;;
61570;SDS011;47463;49.884;10.010;2023-01-13T15:05:22;5.9;;;1.2;;
61570;SDS011;47463;49.884;10.010;2023-01-13T15:10:00;5.7;;;1.4;;
61570;SDS011;47463;49.884;10.010;2023-01-13T15:15:00;4;;;1;;
61570;SDS011;47463;49.884;10.010;2023-01-13T15:20:00;8.6;;;1.7;;
61570;SDS011;47463;49.884;10.010;2023-01-13T15:25:00;9.1;;;1.4;;
61570;SDS011;47463;49.884;10.010;2023-01-13T15:30:00;9.1;;;1.4;;
61570;SDS011;47463;49.884;10.010;2023-01-13T15:35:00;7.5;;;1.6;;
61570;SDS011;47463;49.884;10.010;2023-01-13T15:40:00;7.5;;;2.2;;
61570;SDS011;47463;49.884;10.010;2023-01-13T15:45:00;4.2;;;1;;
61570;SDS011;47463;49.884;10.010;2023-01-13T15:50:00;8.2;;;1.3;;
61570;SDS011;47463;49.884;10.010;2023-01-13T15:55:00;7.5;;;1.3;;
61570;SDS011;47463;49.884;10.010;2023-01-13T16:00:00;7.5;;;1.3;;
61570;SDS011;47463;49.884;10.010;2023-01-13T16:05:00;10;;;2.1;;
61570;SDS011;47463;49.884;10.010;2023-01-13T16:10:00;7.4;;;1.4;;
61570;SDS011;47463;49.884;10.010;2023-01-13T16:15:00;5.7;;;1;;
61570;SDS011;47463;49.884;10.010;2023-01-13T16:20:00;5;;;0.8;;
61570;SDS011;47463;49.884;10.010;2023-01-13T16:25:00;8.7;;;1.2;;
61570;SDS011;47463;49.884;10.010;2023-01-13T16:30:00;8.7;;;1.2;;
61570;SDS011;47463;49.884;10.010;2023-01-13T16:35:00;6.8;;;1.2;;
61570;SDS011;47463;49.884;10.010;2023-01-13T16:40:00;3.3;;;1.1;;
61570;SDS011;47463;49.884;10.010;2023-01-13T16:45:00;2.3;;;0.8;;
61570;SDS011;47463;49.884;10.010;2023-01-13T16:50:00;6.4;;;1.2;;
61570;SDS011;47463;49.884;10.010;2023-01-13T16:55:00;4.7;;;1.2;;
61570;SDS011;47463;49.884;10.010;2023-01-13T17:00:00;4.7;;;1.2;;
61570;SDS011;47463;49.884;10.010;2023-01-13T17:05:00;2.9;;;1;;
61570;SDS011;47463;49.884;10.010;2023-01-13T17:10:00;4.8;;;1;;
61570;SDS011;47463;49.884;10.010;2023-01-13T17:15:00;7.4;;;1.5;;
61570;SDS011;47463;49.884;10.010;2023-01-13T17:20:00;8.4;;;1.5;;
61570;SDS011;47463;49.884;10.010;2023-01-13T17:25:00;7.9;;;1.5;;
61570;SDS011;47463;49.884;10.010;2023-01-13T17:30:00;7.9;;;1.5;;
61570;SDS011;47463;49.884;10.010;2023-01-13T17:35:00;8.4;;;1.5;;
61570;SDS011;47463;49.884;10.010;2023-01-13T17:40:00;8.1;;;1.4;;
61570;SDS011;47463;49.884;10.010;2023-01-13T17:45:00;11.4;;;2.5;;
61570;SDS011;47463;49.884;10.010;2023-01-13T17:50:00;7;;;1.7;;
61570;SDS011;47463;49.884;10.010;2023-01-13T17:55:00;18.7;;;2.7;;
61570;SDS011;47463;49.884;10.010;2023-01-13T18:00:00;18.7;;;2.7;;
61570;SDS011;47463;49.884;10.010;2023-01-13T18:05:00;7;;;2;;
61570;SDS011;47463;49.884;10.010;2023-01-13T18:10:00;8;;;1.4;;
61570;SDS011;47463;49.884;10.010;2023-01-13T18:15:00;7.6;;;1.6;;
61570;SDS011;47463;49.884;10.010;2023-01-13T18:20:00;8.8;;;1.8;;
61570;SDS011;47463;49.884;10.010;2023-01-13T18:25:00;9;;;1.8;;
61570;SDS011;47463;49.884;10.010;2023-01-13T18:30:00;9;;;1.8;;
61570;SDS011;47463;49.884;10.010;2023-01-13T18:35:00;6.4;;;1.4;;
61570;SDS011;47463;49.884;10.010;2023-01-13T18:40:00;10.7;;;1.7;;
61570;SDS011;47463;49.884;10.010;2023-01-13T18:45:00;5.4;;;2.3;;
61570;SDS011;47463;49.884;10.010;2023-01-13T18:50:00;4.2;;;1.1;;
61570;SDS011;47463;49.884;10.010;2023-01-13T18:55:00;6.5;;;1.9;;
61570;SDS011;47463;49.884;10.010;2023-01-13T19:00:00;6.5;;;1.9;;
61570;SDS011;47463;49.884;10.010;2023-01-13T19:05:00;6.5;;;1.5;;
61570;SDS011;47463;49.884;10.010;2023-01-13T19:10:00;10.1;;;2.3;;
61570;SDS011;47463;49.884;10.010;2023-01-13T19:15:00;8.8;;;2;;
61570;SDS011;47463;49.884;10.010;2023-01-13T19:20:00;5.7;;;1.5;;
61570;SDS011;47463;49.884;10.010;2023-01-13T19:25:00;7.7;;;1.8;;
61570;SDS011;47463;49.884;10.010;2023-01-13T19:30:00;7.7;;;1.8;;
61570;SDS011;47463;49.884;10.010;2023-01-13T19:35:00;6.1;;;1.7;;
61570;SDS011;47463;49.884;10.010;2023-01-13T19:40:00;7.7;;;1.3;;
61570;SDS011;47463;49.884;10.010;2023-01-13T19:45:00;6.9;;;1.8;;
61570;SDS011;47463;49.884;10.010;2023-01-13T19:50:00;7.6;;;1.7;;
61570;SDS011;47463;49.884;10.010;2023-01-13T19:55:00;7.9;;;1.5;;
61570;SDS011;47463;49.884;10.010;2023-01-13T20:00:00;7.9;;;1.5;;
61570;SDS011;47463;49.884;10.010;2023-01-13T20:05:00;7.7;;;1.6;;
61570;SDS011;47463;49.884;10.010;2023-01-13T20:10:00;4.6;;;1.6;;
61570;SDS011;47463;49.884;10.010;2023-01-13T20:15:00;5.7;;;1.4;;
61570;SDS011;47463;49.884;10.010;2023-01-13T20:20:00;6.8;;;1.9;;
61570;SDS011;47463;49.884;10.010;2023-01-13T20:25:00;10.2;;;1.5;;
61570;SDS011;47463;49.884;10.010;2023-01-13T20:30:00;10.2;;;1.5;;
61570;SDS011;47463;49.884;10.010;2023-01-13T20:35:00;11.3;;;1.9;;
61570;SDS011;47463;49.884;10.010;2023-01-13T20:40:00;6.4;;;1.3;;
61570;SDS011;47463;49.884;10.010;2023-01-13T20:45:00;7.2;;;1.6;;
61570;SDS011;47463;49.884;10.010;2023-01-13T20:50:00;10.9;;;1.9;;
61570;SDS011;47463;49.884;10.010;2023-01-13T20:55:00;10.6;;;2.9;;
61570;SDS011;47463;49.884;10.010;2023-01-13T21:00:00;10.6;;;2.9;;
61570;SDS011;47463;49.884;10.010;2023-01-13T21:05:00;6;;;1.3;;
61570;SDS011;47463;49.884;10.010;2023-01-13T21:10:00;9.7;;;2.2;;
61570;SDS011;47463;49.884;10.010;2023-01-13T21:15:00;9;;;2;;
61570;SDS011;47463;49.884;10.010;2023-01-13T21:20:00;7.4;;;1.4;;
61570;SDS011;47463;49.884;10.010;2023-01-13T21:25:00;7.2;;;1.7;;
61570;SDS011;47463;49.884;10.010;2023-01-13T21:30:00;7.2;;;1.7;;
61570;SDS011;47463;49.884;10.010;2023-01-13T21:35:00;9.1;;;2.1;;
61570;SDS011;47463;49.884;10.010;2023-01-13T21:40:00;8.8;;;1.5;;
61570;SDS011;47463;49.884;10.010;2023-01-13T21:45:00;9.3;;;1.5;;
61570;SDS011;47463;49.884;10.010;2023-01-13T21:50:00;8.8;;;1.7;;
61570;SDS011;47463;49.884;10.010;2023-01-13T21:55:00;11.5;;;1.8;;
61570;SDS011;47463;49.884;10.010;2023-01-13T22:00:00;11.5;;;1.8;;
61570;SDS011;47463;49.884;10.010;2023-01-13T22:05:00;5.2;;;1.6;;
61570;SDS011;47463;49.884;10.010;2023-01-13T22:10:00;10.1;;;1.7;;
61570;SDS011;47463;49.884;10.010;2023-01-13T22:15:00;10.2;;;2.5;;
61570;SDS011;47463;49.884;10.010;2023-01-13T22:20:00;8.8;;;1.7;;
61570;SDS011;47463;49.884;10.010;2023-01-13T22:25:00;10.4;;;1.8;;
61570;SDS011;47463;49.884;10.010;2023-01-13T22:30:00;10.4;;;1.8;;
61570;SDS011;47463;49.884;10.010;2023-01-13T22:35:00;8.9;;;1.6;;
61570;SDS011;47463;49.884;10.010;2023-01-13T22:40:00;7.8;;;2;;
61570;SDS011;47463;49.884;10.010;2023-01-13T22:45:00;9.1;;;2;;
61570;SDS011;47463;49.884;10.010;2023-01-13T22:50:00;10.4;;;1.7;;
61570;SDS011;47463;49.884;10.010;2023-01-13T22:55:00;11.7;;;2.3;;
61570;SDS011;47463;49.884;10.010;2023-01-13T23:00:00;11.7;;;2.3;;
61570;SDS011;47463;49.884;10.010;2023-01-13T23:05:00;12.6;;;1.8;;
61570;SDS011;47463;49.884;10.010;2023-01-13T23:10:00;11.1;;;1.7;;
61570;SDS011;47463;49.884;10.010;2023-01-13T23:15:00;7.5;;;1.9;;
61570;SDS011;47463;49.884;10.010;2023-01-13T23:20:00;7.8;;;1.9;;
61570;SDS011;47463;49.884;10.010;2023-01-13T23:25:00;10.9;;;1.8;;
61570;SDS011;47463;49.884;10.010;2023-01-13T23:30:00;10.9;;;1.8;;
61570;SDS011;47463;49.884;10.010;2023-01-13T23:35:00;7.7;;;1.9;;
61570;SDS011;47463;49.884;10.010;2023-01-13T23:40:00;7.8;;;1.7;;
61570;SDS011;47463;49.884;10.010;2023-01-13T23:45:00;6.6;;;1.8;;
61570;SDS011;47463;49.884;10.010;2023-01-13T23:50:00;5.2;;;1.7;;
61570;SDS011;47463;49.884;10.010;2023-01-13T23:55:00;10.4;;;3.3;;
